TimeEDT,TemperatureF,Dew PointF,Humidity,Sea Level PressureIn,VisibilityMPH,Wind Direction,Wind SpeedMPH,Gust SpeedMPH,PrecipitationIn,Events,Conditions,WindDirDegrees,DateUTC
12:54 AM,71.1,66.0,84,29.85,-9999.0,Calm,Calm,-,N/A,,Unknown,0,2013-05-22 04:54:00
1:54 AM,69.1,66.0,90,29.85,-9999.0,Calm,Calm,-,N/A,,Unknown,0,2013-05-22 05:54:00
2:54 AM,66.9,64.9,93,29.83,-9999.0,Calm,Calm,-,N/A,,Unknown,0,2013-05-22 06:54:00
3:54 AM,66.0,64.0,93,29.83,-9999.0,Calm,Calm,-,N/A,,Unknown,0,2013-05-22 07:54:00
4:54 AM,66.9,64.9,93,29.83,-9999.0,SSW,3.5,-,N/A,,Unknown,210,2013-05-22 08:54:00
5:54 AM,64.9,64.0,97,29.86,-9999.0,Calm,Calm,-,N/A,,Unknown,0,2013-05-22 09:54:00
6:54 AM,68.0,66.0,93,29.88,-9999.0,Calm,Calm,-,N/A,,Unknown,0,2013-05-22 10:54:00
7:54 AM,70.0,66.0,87,29.88,-9999.0,Variable,3.5,-,N/A,,Unknown,0,2013-05-22 11:54:00
8:54 AM,68.0,64.9,90,29.90,-9999.0,Variable,3.5,-,N/A,,Unknown,0,2013-05-22 12:54:00
9:54 AM,66.9,64.0,90,29.90,-9999.0,Variable,4.6,-,N/A,,Unknown,0,2013-05-22 13:54:00
10:54 AM,70.0,64.9,84,29.90,-9999.0,SSW,3.5,-,N/A,,Unknown,210,2013-05-22 14:54:00
11:54 AM,72.0,66.0,81,29.89,-9999.0,Variable,3.5,-,N/A,,Unknown,0,2013-05-22 15:54:00
12:54 PM,75.9,68.0,76,29.88,-9999.0,Variable,5.8,-,N/A,,Unknown,0,2013-05-22 16:54:00
1:54 PM,78.1,69.1,74,29.87,-9999.0,Variable,3.5,-,N/A,,Unknown,0,2013-05-22 17:54:00
2:54 PM,82.0,69.1,65,29.84,-9999.0,Calm,Calm,-,N/A,,Unknown,0,2013-05-22 18:54:00
3:54 PM,84.0,66.9,56,29.82,-9999.0,Variable,5.8,18.4,N/A,,Unknown,0,2013-05-22 19:54:00
4:54 PM,82.0,69.1,65,29.82,-9999.0,Variable,4.6,-,N/A,,Unknown,0,2013-05-22 20:54:00
5:54 PM,82.9,70.0,65,29.81,-9999.0,Variable,5.8,-,N/A,,Unknown,0,2013-05-22 21:54:00
6:54 PM,82.0,68.0,62,29.81,-9999.0,South,5.8,-,N/A,,Unknown,190,2013-05-22 22:54:00
7:54 PM,80.1,66.9,64,29.81,-9999.0,Variable,3.5,-,N/A,,Unknown,0,2013-05-22 23:54:00
8:54 PM,77.0,66.0,69,29.83,-9999.0,Calm,Calm,-,N/A,,Unknown,0,2013-05-23 00:54:00
9:54 PM,75.9,66.0,71,29.86,-9999.0,Calm,Calm,-,N/A,,Unknown,0,2013-05-23 01:54:00
10:54 PM,73.9,66.9,79,29.87,-9999.0,Calm,Calm,-,N/A,,Unknown,0,2013-05-23 02:54:00
11:54 PM,73.9,61.0,64,29.88,-9999.0,Variable,4.6,20.7,N/A,,Unknown,0,2013-05-23 03:54:00